Terminal Aerodrome Forecast
Issued by NWS Wilmington, NC

Current Version | Previous Version | Graphics & Text | Print | Product List | Glossary Off
Versions: 1 2 3 4 5 6 7 8 9 10 11 12 13

000
FTUS42 KILM 010500
TAFFLO
TAF
KFLO 010538Z 0106/0206 00000KT P6SM BKN120
     FM011400 18008KT P6SM SCT040 BKN200
     FM020000 19013KT P6SM BKN030=

USA.gov is the U.S. government's official web portal to all federal, state and local government web resources and services.